THY22 GMMN-LPPT
Flight info
| Callsign | THY22 |
|---|---|
| Flight time | 1h 7m |
| Altitude | 34000 |
| Route | LAKAM UR722 AMSEL DCT VATZI |
| Aircraft | B738/M-SDE2E3FGHIRWXY/LB1 |
Departure
| Time | 2026-05-07 17:58 |
|---|---|
| Airport | Mohammed V International Airport (GMMN) |
Arrival
| Time | 2026-05-07 19:06 |
|---|---|
| Airport | Lisbon Humberto Delgado Airport (LPPT) |
| Time | Latitude | Longitude | Altitude | Speed | Heading |
|---|---|---|---|---|---|
| 2026-05-07 17:13 | 33.36172 | -7.57970 | 658 ft | 0 kts | 75° |
| 2026-05-07 17:29 | 33.36168 | -7.57987 | 658 ft | 2 kts | 49° |
| 2026-05-07 17:29 | 33.36155 | -7.57997 | 655 ft | 2 kts | 356° |
| 2026-05-07 17:29 | 33.36148 | -7.57996 | 658 ft | 0 kts | 342° |
| 2026-05-07 17:34 | 33.36153 | -7.57999 | 655 ft | 3 kts | 336° |
| 2026-05-07 17:34 | 33.36163 | -7.58026 | 656 ft | 4 kts | 274° |
| 2026-05-07 17:34 | 33.36180 | -7.58056 | 653 ft | 6 kts | 329° |
| 2026-05-07 17:35 | 33.36229 | -7.58074 | 652 ft | 9 kts | 343° |
| 2026-05-07 17:35 | 33.36271 | -7.58108 | 652 ft | 6 kts | 280° |
| 2026-05-07 17:35 | 33.36261 | -7.58168 | 655 ft | 8 kts | 253° |
| 2026-05-07 17:35 | 33.36227 | -7.58233 | 652 ft | 11 kts | 217° |
| 2026-05-07 17:36 | 33.36151 | -7.58223 | 653 ft | 12 kts | 162° |
| 2026-05-07 17:36 | 33.36074 | -7.58195 | 653 ft | 11 kts | 165° |
| 2026-05-07 17:36 | 33.35997 | -7.58171 | 653 ft | 11 kts | 165° |
| 2026-05-07 17:36 | 33.35923 | -7.58146 | 653 ft | 11 kts | 164° |
| 2026-05-07 17:37 | 33.35852 | -7.58122 | 655 ft | 11 kts | 164° |
| 2026-05-07 17:37 | 33.35782 | -7.58097 | 654 ft | 10 kts | 163° |
| 2026-05-07 17:37 | 33.35716 | -7.58074 | 654 ft | 10 kts | 164° |
| 2026-05-07 17:37 | 33.35650 | -7.58052 | 655 ft | 10 kts | 163° |
| 2026-05-07 17:38 | 33.35586 | -7.58030 | 655 ft | 9 kts | 166° |
| 2026-05-07 17:38 | 33.35541 | -7.58016 | 659 ft | 0 kts | 165° |
| 2026-05-07 17:40 | 33.35540 | -7.58015 | 659 ft | 0 kts | 165° |
| 2026-05-07 17:40 | 33.35539 | -7.58015 | 659 ft | 0 kts | 165° |
| 2026-05-07 17:42 | 33.35518 | -7.58008 | 655 ft | 8 kts | 163° |
| 2026-05-07 17:42 | 33.35438 | -7.57979 | 655 ft | 11 kts | 165° |
| 2026-05-07 17:42 | 33.35432 | -7.57978 | 655 ft | 0 kts | 165° |
| 2026-05-07 17:43 | 33.35421 | -7.57974 | 655 ft | 0 kts | 163° |
| 2026-05-07 17:43 | 33.35420 | -7.57974 | 655 ft | 0 kts | 163° |
| 2026-05-07 17:43 | 33.35417 | -7.57973 | 660 ft | 1 kts | 163° |
| 2026-05-07 17:44 | 33.35412 | -7.57971 | 659 ft | 4 kts | 163° |
| 2026-05-07 17:44 | 33.35368 | -7.57955 | 657 ft | 0 kts | 165° |
| 2026-05-07 17:46 | 33.35367 | -7.57954 | 657 ft | 1 kts | 165° |
| 2026-05-07 17:46 | 33.35359 | -7.57951 | 658 ft | 0 kts | 165° |
| 2026-05-07 17:48 | 33.35357 | -7.57951 | 659 ft | 1 kts | 165° |
| 2026-05-07 17:49 | 33.35319 | -7.57945 | 658 ft | 5 kts | 182° |
| 2026-05-07 17:49 | 33.35310 | -7.57947 | 661 ft | 0 kts | 191° |
| 2026-05-07 17:49 | 33.35309 | -7.57947 | 661 ft | 0 kts | 191° |
| 2026-05-07 17:49 | 33.35299 | -7.57951 | 660 ft | 0 kts | 199° |
| 2026-05-07 17:51 | 33.35293 | -7.57953 | 659 ft | 2 kts | 201° |
| 2026-05-07 17:51 | 33.35286 | -7.57958 | 658 ft | 0 kts | 211° |
| 2026-05-07 17:51 | 33.35272 | -7.57971 | 657 ft | 6 kts | 223° |
| 2026-05-07 17:52 | 33.35258 | -7.57998 | 656 ft | 0 kts | 245° |
| 2026-05-07 17:53 | 33.35257 | -7.58000 | 656 ft | 2 kts | 245° |
| 2026-05-07 17:53 | 33.35255 | -7.58006 | 656 ft | 0 kts | 247° |
| 2026-05-07 17:53 | 33.35254 | -7.58008 | 656 ft | 1 kts | 247° |
| 2026-05-07 17:54 | 33.35246 | -7.58035 | 656 ft | 6 kts | 252° |
| 2026-05-07 17:54 | 33.35241 | -7.58055 | 658 ft | 0 kts | 252° |
| 2026-05-07 17:55 | 33.35238 | -7.58068 | 659 ft | 4 kts | 254° |
| 2026-05-07 17:55 | 33.35237 | -7.58070 | 659 ft | 0 kts | 254° |
| 2026-05-07 17:56 | 33.35229 | -7.58106 | 658 ft | 11 kts | 254° |
| 2026-05-07 17:56 | 33.35206 | -7.58200 | 657 ft | 12 kts | 254° |
| 2026-05-07 17:56 | 33.35227 | -7.58264 | 658 ft | 7 kts | 338° |
| 2026-05-07 17:56 | 33.35230 | -7.58265 | 658 ft | 0 kts | 340° |
| 2026-05-07 17:58 | 33.35236 | -7.58267 | 658 ft | 9 kts | 340° |
| 2026-05-07 17:58 | 33.35618 | -7.58399 | 653 ft | 105 kts | 344° |
| 2026-05-07 17:58 | 33.36563 | -7.58736 | 869 ft | 165 kts | 344° |
| 2026-05-07 17:58 | 33.37717 | -7.59167 | 1916 ft | 181 kts | 346° |
| 2026-05-07 17:59 | 33.38921 | -7.59532 | 3057 ft | 187 kts | 347° |
| 2026-05-07 17:59 | 33.40249 | -7.60086 | 3398 ft | 219 kts | 337° |
| 2026-05-07 17:59 | 33.41629 | -7.61013 | 4064 ft | 230 kts | 326° |
| 2026-05-07 17:59 | 33.42917 | -7.62202 | 4688 ft | 242 kts | 317° |
| 2026-05-07 18:00 | 33.44114 | -7.63654 | 4916 ft | 247 kts | 309° |
| 2026-05-07 18:00 | 33.45130 | -7.65296 | 4941 ft | 244 kts | 302° |
| 2026-05-07 18:00 | 33.46055 | -7.66989 | 4947 ft | 241 kts | 301° |
| 2026-05-07 18:00 | 33.46958 | -7.68670 | 4934 ft | 239 kts | 301° |
| 2026-05-07 18:01 | 33.47862 | -7.70333 | 4931 ft | 237 kts | 304° |
| 2026-05-07 18:01 | 33.49196 | -7.71550 | 5026 ft | 258 kts | 342° |
| 2026-05-07 18:01 | 33.51044 | -7.71744 | 5736 ft | 273 kts | 358° |
| 2026-05-07 18:01 | 33.52980 | -7.71786 | 6502 ft | 287 kts | 358° |
| 2026-05-07 18:02 | 33.57063 | -7.71866 | 8375 ft | 297 kts | 357° |
| 2026-05-07 18:02 | 33.59153 | -7.71914 | 9271 ft | 304 kts | 356° |
| 2026-05-07 18:02 | 33.61293 | -7.71970 | 9754 ft | 308 kts | 356° |
| 2026-05-07 18:03 | 33.63450 | -7.72031 | 9954 ft | 311 kts | 355° |
| 2026-05-07 18:03 | 33.65662 | -7.72097 | 10072 ft | 329 kts | 356° |
| 2026-05-07 18:03 | 33.68011 | -7.72173 | 10451 ft | 351 kts | 356° |
| 2026-05-07 18:03 | 33.70488 | -7.72252 | 11195 ft | 358 kts | 355° |
| 2026-05-07 18:04 | 33.72992 | -7.72330 | 12106 ft | 361 kts | 355° |
| 2026-05-07 18:04 | 33.75519 | -7.72409 | 12971 ft | 365 kts | 355° |
| 2026-05-07 18:04 | 33.78086 | -7.72490 | 13656 ft | 373 kts | 355° |
| 2026-05-07 18:04 | 33.80687 | -7.72573 | 13928 ft | 374 kts | 355° |
| 2026-05-07 18:05 | 33.83306 | -7.72657 | 13941 ft | 376 kts | 355° |
| 2026-05-07 18:05 | 33.85913 | -7.72739 | 13948 ft | 374 kts | 355° |
| 2026-05-07 18:05 | 33.88515 | -7.72822 | 13955 ft | 374 kts | 355° |
| 2026-05-07 18:05 | 33.91114 | -7.72906 | 13956 ft | 374 kts | 355° |
| 2026-05-07 18:06 | 33.93730 | -7.72991 | 14101 ft | 379 kts | 355° |
| 2026-05-07 18:06 | 33.96350 | -7.73077 | 14821 ft | 381 kts | 355° |
| 2026-05-07 18:06 | 33.98995 | -7.73161 | 15789 ft | 380 kts | 355° |
| 2026-05-07 18:06 | 34.01647 | -7.73247 | 16585 ft | 383 kts | 354° |
| 2026-05-07 18:07 | 34.04339 | -7.73335 | 17295 ft | 389 kts | 354° |
| 2026-05-07 18:07 | 34.07064 | -7.73425 | 18025 ft | 393 kts | 354° |
| 2026-05-07 18:07 | 34.09818 | -7.73514 | 18707 ft | 397 kts | 354° |
| 2026-05-07 18:07 | 34.12595 | -7.73604 | 19345 ft | 401 kts | 353° |
| 2026-05-07 18:08 | 34.15401 | -7.73695 | 19858 ft | 406 kts | 353° |
| 2026-05-07 18:08 | 34.18226 | -7.73787 | 19945 ft | 407 kts | 353° |
| 2026-05-07 18:08 | 34.21043 | -7.73915 | 20270 ft | 414 kts | 352° |
| 2026-05-07 18:08 | 34.23918 | -7.74109 | 21042 ft | 413 kts | 351° |
| 2026-05-07 18:09 | 34.26795 | -7.74324 | 21757 ft | 414 kts | 351° |
| 2026-05-07 18:09 | 34.29690 | -7.74544 | 22343 ft | 419 kts | 351° |
| 2026-05-07 18:09 | 34.32629 | -7.74766 | 22898 ft | 424 kts | 351° |
| 2026-05-07 18:09 | 34.35597 | -7.74984 | 23473 ft | 429 kts | 351° |
| 2026-05-07 18:10 | 34.38593 | -7.75198 | 23986 ft | 432 kts | 351° |
| 2026-05-07 18:10 | 34.41567 | -7.75407 | 24493 ft | 434 kts | 351° |
| 2026-05-07 18:10 | 34.44589 | -7.75618 | 25023 ft | 436 kts | 350° |
| 2026-05-07 18:10 | 34.47624 | -7.75831 | 25521 ft | 439 kts | 350° |
| 2026-05-07 18:11 | 34.50688 | -7.76045 | 26022 ft | 441 kts | 350° |
| 2026-05-07 18:11 | 34.52761 | -7.76191 | 26345 ft | 443 kts | 350° |
| 2026-05-07 18:11 | 34.56857 | -7.76479 | 26970 ft | 446 kts | 350° |
| 2026-05-07 18:11 | 34.59969 | -7.76698 | 27431 ft | 449 kts | 350° |
| 2026-05-07 18:12 | 34.63098 | -7.76919 | 27876 ft | 451 kts | 350° |
| 2026-05-07 18:12 | 34.66249 | -7.77140 | 28314 ft | 454 kts | 350° |
| 2026-05-07 18:12 | 34.69412 | -7.77363 | 28743 ft | 456 kts | 350° |
| 2026-05-07 18:12 | 34.72593 | -7.77588 | 29162 ft | 459 kts | 350° |
| 2026-05-07 18:13 | 34.75793 | -7.77819 | 29602 ft | 461 kts | 349° |
| 2026-05-07 18:13 | 34.78999 | -7.78075 | 30030 ft | 462 kts | 349° |
| 2026-05-07 18:13 | 34.82184 | -7.78342 | 30364 ft | 464 kts | 349° |
| 2026-05-07 18:13 | 34.85415 | -7.78618 | 30673 ft | 467 kts | 349° |
| 2026-05-07 18:14 | 34.88669 | -7.78895 | 30969 ft | 469 kts | 349° |
| 2026-05-07 18:14 | 34.91938 | -7.79171 | 31268 ft | 472 kts | 349° |
| 2026-05-07 18:14 | 34.95222 | -7.79446 | 31563 ft | 474 kts | 349° |
| 2026-05-07 18:14 | 34.98524 | -7.79721 | 31854 ft | 476 kts | 349° |
| 2026-05-07 18:15 | 35.01839 | -7.79997 | 32144 ft | 478 kts | 349° |
| 2026-05-07 18:15 | 35.05166 | -7.80273 | 32450 ft | 479 kts | 349° |
| 2026-05-07 18:15 | 35.08496 | -7.80548 | 32870 ft | 478 kts | 349° |
| 2026-05-07 18:15 | 35.11804 | -7.80821 | 33324 ft | 475 kts | 349° |
| 2026-05-07 18:16 | 35.15110 | -7.81095 | 33734 ft | 474 kts | 349° |
| 2026-05-07 18:16 | 35.18354 | -7.81365 | 33971 ft | 471 kts | 349° |
| 2026-05-07 18:16 | 35.21595 | -7.81633 | 33934 ft | 461 kts | 349° |
| 2026-05-07 18:17 | 35.27917 | -7.82160 | 33961 ft | 453 kts | 348° |
| 2026-05-07 18:17 | 35.34216 | -7.82697 | 33958 ft | 454 kts | 348° |
| 2026-05-07 18:18 | 35.40533 | -7.83228 | 33961 ft | 455 kts | 348° |
| 2026-05-07 18:18 | 35.46854 | -7.83780 | 33954 ft | 456 kts | 348° |
| 2026-05-07 18:19 | 35.53173 | -7.84468 | 33949 ft | 450 kts | 341° |
| 2026-05-07 18:19 | 35.56147 | -7.85484 | 33957 ft | 438 kts | 330° |
| 2026-05-07 18:19 | 35.58978 | -7.86856 | 33958 ft | 437 kts | 329° |
| 2026-05-07 18:20 | 35.64585 | -7.89642 | 33940 ft | 437 kts | 329° |
| 2026-05-07 18:20 | 35.70243 | -7.92425 | 33948 ft | 438 kts | 330° |
| 2026-05-07 18:21 | 35.75919 | -7.95182 | 33950 ft | 438 kts | 330° |
| 2026-05-07 18:21 | 35.81595 | -7.97926 | 33946 ft | 438 kts | 330° |
| 2026-05-07 18:22 | 35.87274 | -8.00673 | 33948 ft | 438 kts | 330° |
| 2026-05-07 18:22 | 35.92947 | -8.03422 | 33950 ft | 437 kts | 330° |
| 2026-05-07 18:23 | 35.98611 | -8.06172 | 33968 ft | 437 kts | 330° |
| 2026-05-07 18:23 | 36.04246 | -8.08913 | 33949 ft | 437 kts | 330° |
| 2026-05-07 18:24 | 36.09918 | -8.11676 | 33944 ft | 437 kts | 330° |
| 2026-05-07 18:24 | 36.15581 | -8.14439 | 33944 ft | 437 kts | 330° |
| 2026-05-07 18:25 | 36.21241 | -8.17205 | 33942 ft | 437 kts | 330° |
| 2026-05-07 18:25 | 36.26871 | -8.19960 | 33954 ft | 437 kts | 330° |
| 2026-05-07 18:26 | 36.32533 | -8.22736 | 33945 ft | 437 kts | 330° |
| 2026-05-07 18:26 | 36.38195 | -8.25516 | 33943 ft | 437 kts | 330° |
| 2026-05-07 18:27 | 36.43855 | -8.28298 | 33942 ft | 437 kts | 330° |
| 2026-05-07 18:27 | 36.49484 | -8.31071 | 33940 ft | 438 kts | 330° |
| 2026-05-07 18:28 | 36.55143 | -8.33862 | 33935 ft | 437 kts | 330° |
| 2026-05-07 18:28 | 36.60807 | -8.36660 | 33940 ft | 438 kts | 330° |
| 2026-05-07 18:29 | 36.66484 | -8.39470 | 33941 ft | 439 kts | 330° |
| 2026-05-07 18:29 | 36.72171 | -8.42288 | 33948 ft | 440 kts | 330° |
| 2026-05-07 18:30 | 36.77835 | -8.45100 | 33936 ft | 440 kts | 330° |
| 2026-05-07 18:30 | 36.80641 | -8.46487 | 33916 ft | 425 kts | 329° |
| 2026-05-07 18:30 | 36.83348 | -8.47820 | 33913 ft | 411 kts | 329° |
| 2026-05-07 18:30 | 36.85963 | -8.49110 | 33744 ft | 397 kts | 329° |
| 2026-05-07 18:31 | 36.88506 | -8.50372 | 33319 ft | 388 kts | 329° |
| 2026-05-07 18:31 | 36.91025 | -8.51633 | 32368 ft | 393 kts | 329° |
| 2026-05-07 18:31 | 36.93582 | -8.52930 | 31001 ft | 411 kts | 330° |
| 2026-05-07 18:31 | 36.96256 | -8.54281 | 30606 ft | 410 kts | 331° |
| 2026-05-07 18:32 | 36.98958 | -8.55638 | 30137 ft | 429 kts | 331° |
| 2026-05-07 18:32 | 37.01788 | -8.57063 | 29660 ft | 443 kts | 332° |
| 2026-05-07 18:32 | 37.04675 | -8.58510 | 29141 ft | 449 kts | 332° |
| 2026-05-07 18:32 | 37.07576 | -8.59957 | 28634 ft | 446 kts | 332° |
| 2026-05-07 18:33 | 37.10445 | -8.61383 | 28163 ft | 440 kts | 332° |
| 2026-05-07 18:33 | 37.13249 | -8.62781 | 27676 ft | 436 kts | 333° |
| 2026-05-07 18:33 | 37.16063 | -8.64189 | 27217 ft | 433 kts | 333° |
| 2026-05-07 18:33 | 37.18849 | -8.65587 | 26763 ft | 430 kts | 333° |
| 2026-05-07 18:34 | 37.21632 | -8.66986 | 26300 ft | 428 kts | 333° |
| 2026-05-07 18:34 | 37.24392 | -8.68376 | 25837 ft | 425 kts | 333° |
| 2026-05-07 18:34 | 37.27130 | -8.69756 | 25381 ft | 424 kts | 333° |
| 2026-05-07 18:34 | 37.29863 | -8.71134 | 24924 ft | 421 kts | 333° |
| 2026-05-07 18:35 | 37.32540 | -8.72485 | 24483 ft | 419 kts | 333° |
| 2026-05-07 18:35 | 37.35249 | -8.73853 | 24011 ft | 418 kts | 333° |
| 2026-05-07 18:35 | 37.37944 | -8.75215 | 23540 ft | 417 kts | 334° |
| 2026-05-07 18:35 | 37.40628 | -8.76572 | 23026 ft | 414 kts | 333° |
| 2026-05-07 18:36 | 37.43297 | -8.77922 | 22542 ft | 411 kts | 333° |
| 2026-05-07 18:36 | 37.45959 | -8.79270 | 22063 ft | 409 kts | 333° |
| 2026-05-07 18:36 | 37.48573 | -8.80594 | 21403 ft | 403 kts | 333° |
| 2026-05-07 18:36 | 37.51158 | -8.81904 | 20771 ft | 396 kts | 333° |
| 2026-05-07 18:37 | 37.53671 | -8.83180 | 20166 ft | 392 kts | 333° |
| 2026-05-07 18:37 | 37.56191 | -8.84462 | 19569 ft | 389 kts | 333° |
| 2026-05-07 18:37 | 37.58696 | -8.85735 | 18982 ft | 387 kts | 333° |
| 2026-05-07 18:37 | 37.61200 | -8.86955 | 18405 ft | 386 kts | 336° |
| 2026-05-07 18:38 | 37.63732 | -8.87999 | 17979 ft | 376 kts | 340° |
| 2026-05-07 18:38 | 37.66312 | -8.88604 | 17318 ft | 372 kts | 349° |
| 2026-05-07 18:38 | 37.68856 | -8.88965 | 16694 ft | 365 kts | 351° |
| 2026-05-07 18:38 | 37.70528 | -8.89185 | 16191 ft | 364 kts | 351° |
| 2026-05-07 18:39 | 37.73054 | -8.89518 | 15452 ft | 365 kts | 352° |
| 2026-05-07 18:39 | 37.75585 | -8.89862 | 14724 ft | 365 kts | 352° |
| 2026-05-07 18:39 | 37.78101 | -8.90215 | 14009 ft | 361 kts | 352° |
| 2026-05-07 18:39 | 37.80585 | -8.90574 | 13252 ft | 358 kts | 352° |
| 2026-05-07 18:40 | 37.83840 | -8.91053 | 12299 ft | 351 kts | 352° |
| 2026-05-07 18:40 | 37.85470 | -8.91296 | 11874 ft | 347 kts | 352° |
| 2026-05-07 18:40 | 37.87843 | -8.91651 | 11284 ft | 340 kts | 352° |
| 2026-05-07 18:40 | 37.90140 | -8.91995 | 11055 ft | 323 kts | 352° |
| 2026-05-07 18:41 | 37.92341 | -8.92326 | 10967 ft | 314 kts | 352° |
| 2026-05-07 18:41 | 37.94467 | -8.92646 | 10945 ft | 309 kts | 352° |
| 2026-05-07 18:41 | 37.96602 | -8.92968 | 10945 ft | 309 kts | 352° |
| 2026-05-07 18:41 | 37.98778 | -8.93297 | 10959 ft | 320 kts | 352° |
| 2026-05-07 18:42 | 38.01007 | -8.93633 | 10800 ft | 324 kts | 352° |
| 2026-05-07 18:42 | 38.03249 | -8.93972 | 10554 ft | 325 kts | 352° |
| 2026-05-07 18:42 | 38.05468 | -8.94307 | 10290 ft | 315 kts | 352° |
| 2026-05-07 18:42 | 38.07597 | -8.94628 | 10034 ft | 302 kts | 352° |
| 2026-05-07 18:43 | 38.09651 | -8.94938 | 9640 ft | 295 kts | 353° |
| 2026-05-07 18:43 | 38.11696 | -8.95247 | 9068 ft | 294 kts | 352° |
| 2026-05-07 18:43 | 38.13703 | -8.95550 | 8565 ft | 286 kts | 353° |
| 2026-05-07 18:43 | 38.15655 | -8.95481 | 8006 ft | 279 kts | 15° |
| 2026-05-07 18:44 | 38.17344 | -8.94372 | 7475 ft | 271 kts | 39° |
| 2026-05-07 18:44 | 38.18772 | -8.92847 | 7053 ft | 262 kts | 43° |
| 2026-05-07 18:44 | 38.20125 | -8.91329 | 7004 ft | 258 kts | 43° |
| 2026-05-07 18:44 | 38.21455 | -8.89823 | 6963 ft | 259 kts | 43° |
| 2026-05-07 18:45 | 38.22795 | -8.88308 | 6936 ft | 255 kts | 44° |
| 2026-05-07 18:45 | 38.24121 | -8.86805 | 6935 ft | 256 kts | 43° |
| 2026-05-07 18:45 | 38.25457 | -8.85286 | 6934 ft | 258 kts | 44° |
| 2026-05-07 18:45 | 38.26799 | -8.83760 | 6916 ft | 259 kts | 43° |
| 2026-05-07 18:46 | 38.28130 | -8.82246 | 6927 ft | 259 kts | 43° |
| 2026-05-07 18:46 | 38.29473 | -8.80712 | 6935 ft | 259 kts | 43° |
| 2026-05-07 18:46 | 38.30813 | -8.79181 | 6938 ft | 259 kts | 43° |
| 2026-05-07 18:46 | 38.32154 | -8.77647 | 6944 ft | 259 kts | 43° |
| 2026-05-07 18:47 | 38.33494 | -8.76113 | 6930 ft | 259 kts | 44° |
| 2026-05-07 18:47 | 38.34841 | -8.74573 | 6932 ft | 259 kts | 43° |
| 2026-05-07 18:47 | 38.36183 | -8.73095 | 6918 ft | 259 kts | 35° |
| 2026-05-07 18:47 | 38.37849 | -8.72293 | 6925 ft | 258 kts | 4° |
| 2026-05-07 18:48 | 38.39590 | -8.72632 | 6934 ft | 253 kts | 333° |
| 2026-05-07 18:48 | 38.40938 | -8.73983 | 6935 ft | 246 kts | 302° |
| 2026-05-07 18:48 | 38.41621 | -8.75944 | 6935 ft | 243 kts | 277° |
| 2026-05-07 18:48 | 38.41699 | -8.78062 | 6935 ft | 238 kts | 264° |
| 2026-05-07 18:49 | 38.41583 | -8.80167 | 6935 ft | 238 kts | 262° |
| 2026-05-07 18:49 | 38.41442 | -8.82261 | 6926 ft | 236 kts | 262° |
| 2026-05-07 18:49 | 38.41306 | -8.84326 | 6926 ft | 236 kts | 261° |
| 2026-05-07 18:49 | 38.41173 | -8.86412 | 6917 ft | 238 kts | 262° |
| 2026-05-07 18:50 | 38.41042 | -8.88538 | 6925 ft | 242 kts | 262° |
| 2026-05-07 18:50 | 38.40915 | -8.90681 | 6931 ft | 241 kts | 262° |
| 2026-05-07 18:50 | 38.40792 | -8.92807 | 6933 ft | 239 kts | 262° |
| 2026-05-07 18:50 | 38.40670 | -8.94911 | 6931 ft | 236 kts | 262° |
| 2026-05-07 18:51 | 38.40549 | -8.96991 | 6933 ft | 234 kts | 262° |
| 2026-05-07 18:51 | 38.40411 | -8.99055 | 6932 ft | 232 kts | 257° |
| 2026-05-07 18:51 | 38.39759 | -9.00875 | 6962 ft | 228 kts | 232° |
| 2026-05-07 18:51 | 38.38865 | -9.02555 | 6942 ft | 234 kts | 234° |
| 2026-05-07 18:52 | 38.37967 | -9.04279 | 6943 ft | 232 kts | 234° |
| 2026-05-07 18:52 | 38.37077 | -9.05991 | 6933 ft | 231 kts | 233° |
| 2026-05-07 18:52 | 38.36190 | -9.07694 | 6930 ft | 229 kts | 234° |
| 2026-05-07 18:52 | 38.35314 | -9.09376 | 6933 ft | 227 kts | 235° |
| 2026-05-07 18:53 | 38.34546 | -9.11142 | 6928 ft | 231 kts | 251° |
| 2026-05-07 18:53 | 38.34236 | -9.13168 | 6950 ft | 235 kts | 258° |
| 2026-05-07 18:53 | 38.33944 | -9.15196 | 6945 ft | 235 kts | 257° |
| 2026-05-07 18:53 | 38.33637 | -9.17242 | 6934 ft | 234 kts | 256° |
| 2026-05-07 18:54 | 38.33329 | -9.19269 | 6941 ft | 232 kts | 256° |
| 2026-05-07 18:54 | 38.33020 | -9.21282 | 6932 ft | 231 kts | 256° |
| 2026-05-07 18:54 | 38.32727 | -9.23287 | 6929 ft | 231 kts | 262° |
| 2026-05-07 18:54 | 38.32890 | -9.25322 | 6953 ft | 233 kts | 279° |
| 2026-05-07 18:55 | 38.33241 | -9.27347 | 6946 ft | 236 kts | 278° |
| 2026-05-07 18:55 | 38.33576 | -9.29416 | 6947 ft | 240 kts | 279° |
| 2026-05-07 18:55 | 38.33910 | -9.31503 | 6947 ft | 240 kts | 278° |
| 2026-05-07 18:55 | 38.34242 | -9.33585 | 6936 ft | 239 kts | 279° |
| 2026-05-07 18:56 | 38.34822 | -9.35525 | 6922 ft | 243 kts | 307° |
| 2026-05-07 18:56 | 38.36205 | -9.36747 | 6950 ft | 247 kts | 338° |
| 2026-05-07 18:56 | 38.37913 | -9.37012 | 6950 ft | 252 kts | 4° |
| 2026-05-07 18:56 | 38.39614 | -9.36360 | 6952 ft | 258 kts | 25° |
| 2026-05-07 18:57 | 38.41231 | -9.35341 | 6941 ft | 259 kts | 27° |
| 2026-05-07 18:57 | 38.42870 | -9.34266 | 6511 ft | 271 kts | 26° |
| 2026-05-07 18:57 | 38.44547 | -9.33165 | 6037 ft | 268 kts | 26° |
| 2026-05-07 18:57 | 38.46155 | -9.32115 | 5591 ft | 248 kts | 25° |
| 2026-05-07 18:58 | 38.47624 | -9.31159 | 5240 ft | 227 kts | 24° |
| 2026-05-07 18:58 | 38.48962 | -9.30291 | 4942 ft | 208 kts | 24° |
| 2026-05-07 18:58 | 38.50210 | -9.29485 | 4699 ft | 195 kts | 23° |
| 2026-05-07 18:58 | 38.51421 | -9.28708 | 4439 ft | 194 kts | 24° |
| 2026-05-07 18:59 | 38.52639 | -9.27927 | 4216 ft | 198 kts | 22° |
| 2026-05-07 18:59 | 38.53859 | -9.27145 | 4070 ft | 196 kts | 23° |
| 2026-05-07 18:59 | 38.55075 | -9.26363 | 4033 ft | 192 kts | 22° |
| 2026-05-07 18:59 | 38.56235 | -9.25615 | 4019 ft | 184 kts | 22° |
| 2026-05-07 19:00 | 38.57354 | -9.24889 | 4026 ft | 183 kts | 22° |
| 2026-05-07 19:00 | 38.58510 | -9.24180 | 4033 ft | 183 kts | 21° |
| 2026-05-07 19:00 | 38.59628 | -9.23531 | 4000 ft | 169 kts | 21° |
| 2026-05-07 19:00 | 38.60681 | -9.22946 | 4013 ft | 168 kts | 17° |
| 2026-05-07 19:01 | 38.61832 | -9.22343 | 3559 ft | 180 kts | 19° |
| 2026-05-07 19:01 | 38.62921 | -9.21760 | 3309 ft | 159 kts | 18° |
| 2026-05-07 19:01 | 38.63898 | -9.21235 | 3099 ft | 150 kts | 15° |
| 2026-05-07 19:01 | 38.64850 | -9.20726 | 2896 ft | 146 kts | 16° |
| 2026-05-07 19:02 | 38.65763 | -9.20237 | 2701 ft | 142 kts | 17° |
| 2026-05-07 19:02 | 38.66675 | -9.19745 | 2517 ft | 143 kts | 17° |
| 2026-05-07 19:02 | 38.67599 | -9.19250 | 2302 ft | 143 kts | 17° |
| 2026-05-07 19:02 | 38.68518 | -9.18758 | 2083 ft | 142 kts | 17° |
| 2026-05-07 19:03 | 38.69425 | -9.18269 | 1909 ft | 141 kts | 15° |
| 2026-05-07 19:03 | 38.70355 | -9.17771 | 1720 ft | 148 kts | 17° |
| 2026-05-07 19:03 | 38.71305 | -9.17259 | 1517 ft | 148 kts | 17° |
| 2026-05-07 19:03 | 38.72250 | -9.16750 | 1313 ft | 149 kts | 16° |
| 2026-05-07 19:04 | 38.73183 | -9.16249 | 1103 ft | 141 kts | 15° |
| 2026-05-07 19:04 | 38.74070 | -9.15773 | 922 ft | 137 kts | 17° |
| 2026-05-07 19:04 | 38.74954 | -9.15298 | 747 ft | 137 kts | 19° |
| 2026-05-07 19:04 | 38.75843 | -9.14816 | 578 ft | 137 kts | 16° |
| 2026-05-07 19:05 | 38.76696 | -9.14358 | 356 ft | 127 kts | 17° |
| 2026-05-07 19:05 | 38.77404 | -9.13992 | 348 ft | 91 kts | 25° |
| 2026-05-07 19:05 | 38.77890 | -9.13726 | 348 ft | 69 kts | 22° |
| 2026-05-07 19:05 | 38.78334 | -9.13468 | 350 ft | 64 kts | 27° |
| 2026-05-07 19:06 | 38.78551 | -9.13283 | 345 ft | 5 kts | 119° |
| 2026-05-07 19:06 | 38.78381 | -9.13236 | 351 ft | 11 kts | 198° |
| 2026-05-07 19:06 | 38.78312 | -9.13270 | 351 ft | 11 kts | 201° |
| 2026-05-07 19:07 | 38.78244 | -9.13303 | 349 ft | 10 kts | 201° |
| 2026-05-07 19:07 | 38.78178 | -9.13336 | 351 ft | 10 kts | 201° |
| 2026-05-07 19:07 | 38.78114 | -9.13369 | 347 ft | 10 kts | 202° |
| 2026-05-07 19:07 | 38.78052 | -9.13402 | 349 ft | 10 kts | 203° |
| 2026-05-07 19:08 | 38.78004 | -9.13410 | 346 ft | 7 kts | 175° |
| 2026-05-07 19:08 | 38.77956 | -9.13400 | 346 ft | 7 kts | 167° |
| 2026-05-07 19:08 | 38.77907 | -9.13385 | 346 ft | 8 kts | 167° |
| 2026-05-07 19:08 | 38.77845 | -9.13367 | 349 ft | 10 kts | 167° |
| 2026-05-07 19:09 | 38.77780 | -9.13349 | 350 ft | 9 kts | 168° |
| 2026-05-07 19:09 | 38.77716 | -9.13332 | 346 ft | 9 kts | 169° |
| 2026-05-07 19:09 | 38.77636 | -9.13321 | 348 ft | 15 kts | 178° |
| 2026-05-07 19:09 | 38.77494 | -9.13297 | 354 ft | 25 kts | 167° |
| 2026-05-07 19:10 | 38.77337 | -9.13258 | 346 ft | 17 kts | 172° |
| 2026-05-07 19:10 | 38.77240 | -9.13236 | 349 ft | 11 kts | 169° |
| 2026-05-07 19:10 | 38.77228 | -9.13233 | 349 ft | 0 kts | 165° |
| 2026-05-07 19:10 | 38.77200 | -9.13210 | 357 ft | 7 kts | 131° |
| 2026-05-07 19:11 | 38.77198 | -9.13197 | 351 ft | 2 kts | 105° |
| 2026-05-07 19:11 | 38.77203 | -9.13167 | 346 ft | 4 kts | 74° |
| 2026-05-07 19:11 | 38.77206 | -9.13153 | 355 ft | 0 kts | 75° |